createdAt,value
2023-01-03T00:02:22.080Z,88.01
2023-01-03T00:04:50.005Z,88.67
2023-01-03T00:07:34.045Z,88.82
2023-01-03T00:10:02.160Z,89.01
2023-01-03T00:12:31.384Z,89.30
2023-01-03T00:14:58.761Z,89.08
2023-01-03T00:17:25.699Z,89.72
2023-01-03T00:19:52.565Z,89.43
2023-01-03T00:22:19.347Z,89.13
2023-01-03T00:24:46.570Z,89.10
2023-01-03T00:27:13.571Z,89.17
2023-01-03T00:29:40.377Z,89.77
2023-01-03T00:32:07.270Z,89.14
2023-01-03T00:34:34.175Z,89.65
2023-01-03T00:37:01.101Z,89.39
2023-01-03T00:39:27.969Z,89.69
2023-01-03T00:41:54.810Z,88.35
2023-01-03T00:44:21.750Z,89.29
2023-01-03T00:46:48.607Z,88.57
2023-01-03T00:49:15.508Z,89.22
2023-01-03T00:51:42.761Z,89.13
2023-01-03T00:54:11.926Z,89.35
2023-01-03T00:56:40.945Z,89.26
2023-01-03T00:59:07.860Z,89.01
2023-01-03T01:01:46.250Z,89.61
2023-01-03T01:04:16.421Z,89.98
2023-01-03T01:06:44.005Z,90.59
2023-01-03T01:09:14.829Z,88.96
2023-01-03T01:11:41.905Z,90.12
2023-01-03T01:14:20.134Z,89.81
2023-01-03T01:16:47.996Z,90.13
2023-01-03T01:19:15.266Z,89.26
2023-01-03T01:21:43.151Z,88.71
2023-01-03T01:24:14.328Z,89.42
2023-01-03T01:26:46.131Z,89.34
2023-01-03T01:29:13.256Z,89.36
2023-01-03T01:31:40.279Z,88.36
2023-01-03T01:34:07.130Z,88.63
2023-01-03T01:36:37.630Z,88.22
2023-01-03T01:39:05.350Z,88.39
2023-01-03T01:41:51.176Z,88.81
2023-01-03T01:44:39.679Z,88.03
2023-01-03T01:47:10.009Z,88.38
2023-01-03T01:49:36.867Z,87.67
2023-01-03T01:52:03.708Z,87.75
2023-01-03T01:54:30.549Z,87.77
2023-01-03T01:56:57.410Z,87.52
2023-01-03T01:59:24.252Z,87.42
2023-01-03T02:01:52.795Z,88.45
2023-01-03T02:04:21.487Z,87.32
2023-01-03T02:06:48.301Z,88.09
2023-01-03T02:09:15.145Z,87.93
2023-01-03T02:12:15.823Z,87.44
2023-01-03T02:14:46.413Z,88.15
2023-01-03T02:17:16.366Z,87.93
2023-01-03T02:19:52.001Z,88.51
2023-01-03T02:22:37.165Z,88.46
2023-01-03T02:25:04.043Z,88.26
2023-01-03T02:27:30.832Z,88.35
2023-01-03T02:30:09.968Z,88.79
2023-01-03T02:32:43.527Z,88.01
2023-01-03T02:35:13.328Z,88.70
2023-01-03T02:37:41.141Z,89.11
2023-01-03T02:40:08.083Z,88.82
2023-01-03T02:42:55.727Z,89.28
2023-01-03T02:45:37.823Z,89.50
2023-01-03T02:48:06.591Z,89.59
2023-01-03T02:50:35.172Z,88.51
2023-01-03T02:53:03.119Z,89.30
2023-01-03T02:55:30.925Z,88.54
2023-01-03T02:58:05.245Z,87.82
2023-01-03T03:00:33.073Z,88.37
2023-01-03T03:03:01.111Z,87.82
2023-01-03T03:05:29.125Z,87.20
2023-01-03T03:07:56.071Z,87.34
2023-01-03T03:10:41.698Z,86.94
2023-01-03T03:13:27.324Z,86.44
2023-01-03T03:16:03.571Z,86.60
2023-01-03T03:18:30.530Z,86.38
2023-01-03T03:21:15.919Z,86.61
2023-01-03T03:24:01.556Z,86.25
2023-01-03T03:26:31.700Z,86.70
2023-01-03T03:29:00.671Z,85.83
2023-01-03T03:31:57.200Z,85.81
2023-01-03T03:34:25.230Z,85.79
2023-01-03T03:37:01.315Z,85.61
2023-01-03T03:39:46.799Z,86.26
2023-01-03T03:42:44.700Z,86.67
2023-01-03T03:45:13.447Z,86.15
2023-01-03T03:47:45.629Z,86.61
2023-01-03T03:50:28.081Z,85.60
2023-01-03T03:52:56.184Z,85.08
2023-01-03T03:55:24.540Z,85.59
2023-01-03T03:57:56.348Z,86.23
2023-01-03T04:00:24.551Z,85.99
2023-01-03T04:02:51.468Z,85.78
2023-01-03T04:05:19.739Z,85.73
2023-01-03T04:07:46.854Z,85.16
2023-01-03T04:10:13.981Z,85.83
2023-01-03T04:12:40.962Z,85.42
2023-01-03T04:15:08.089Z,86.31
2023-01-03T04:17:34.969Z,85.72
2023-01-03T04:20:01.981Z,86.52
2023-01-03T04:22:28.890Z,86.79
2023-01-03T04:24:55.763Z,86.53
2023-01-03T04:27:22.840Z,86.23
2023-01-03T04:29:49.691Z,85.74
2023-01-03T04:32:16.537Z,85.57
2023-01-03T04:34:43.773Z,86.18
2023-01-03T04:37:10.724Z,85.42
2023-01-03T04:39:37.600Z,86.26
2023-01-03T04:42:24.556Z,86.21
2023-01-03T04:44:51.504Z,85.51
2023-01-03T04:47:18.460Z,86.27
2023-01-03T04:49:46.584Z,85.77
2023-01-03T04:52:16.633Z,86.21
2023-01-03T04:54:43.665Z,84.80
2023-01-03T04:57:10.740Z,85.60
2023-01-03T04:59:37.933Z,85.78
2023-01-03T05:02:04.876Z,84.86
2023-01-03T05:04:32.236Z,84.96
2023-01-03T05:06:59.215Z,85.44
2023-01-03T05:09:27.408Z,86.33
2023-01-03T05:11:54.302Z,86.03
2023-01-03T05:14:21.269Z,85.28
2023-01-03T05:16:48.148Z,85.68
2023-01-03T05:19:15.094Z,85.17
2023-01-03T05:22:00.755Z,85.63
2023-01-03T05:24:56.404Z,85.86
2023-01-03T05:27:23.401Z,85.54
2023-01-03T05:29:50.551Z,84.93
2023-01-03T05:32:17.493Z,85.70
2023-01-03T05:34:44.435Z,85.31
2023-01-03T05:37:11.367Z,85.87
2023-01-03T05:39:38.205Z,85.57
2023-01-03T05:42:05.131Z,85.48
2023-01-03T05:44:32.863Z,85.09
2023-01-03T05:47:00.015Z,84.92
2023-01-03T05:49:26.900Z,85.13
2023-01-03T05:51:53.830Z,85.59
2023-01-03T05:54:21.422Z,84.64
2023-01-03T05:56:48.427Z,85.73
2023-01-03T05:59:16.268Z,85.18
2023-01-03T06:01:43.303Z,84.59
2023-01-03T06:04:10.305Z,85.54
2023-01-03T06:06:37.291Z,84.86
2023-01-03T06:09:04.281Z,85.06
2023-01-03T06:11:31.208Z,85.46
2023-01-03T06:13:58.127Z,85.01
2023-01-03T06:16:43.672Z,85.12
2023-01-03T06:19:10.805Z,85.58
2023-01-03T06:21:37.822Z,84.71
2023-01-03T06:24:04.975Z,84.70
2023-01-03T06:26:31.946Z,84.98
2023-01-03T06:28:58.888Z,85.52
2023-01-03T06:31:25.959Z,84.75
2023-01-03T06:33:53.485Z,85.04
2023-01-03T06:36:21.399Z,84.45
2023-01-03T06:38:48.390Z,84.98
2023-01-03T06:41:15.901Z,84.52
2023-01-03T06:43:42.816Z,84.44
2023-01-03T06:46:28.899Z,85.29
2023-01-03T06:49:16.285Z,84.99
2023-01-03T06:52:01.869Z,85.35
2023-01-03T06:54:32.425Z,84.95
2023-01-03T06:56:59.464Z,85.98
2023-01-03T06:59:27.546Z,85.37
2023-01-03T07:01:54.880Z,85.44
2023-01-03T07:04:22.960Z,85.12
2023-01-03T07:06:50.050Z,84.95
2023-01-03T07:09:18.176Z,85.37
2023-01-03T07:11:45.240Z,85.48
2023-01-03T07:14:12.410Z,85.65
2023-01-03T07:16:40.160Z,85.15
2023-01-03T07:19:07.501Z,84.63
2023-01-03T07:21:34.649Z,85.46
2023-01-03T07:24:02.008Z,85.13
2023-01-03T07:26:31.037Z,85.23
2023-01-03T07:28:59.115Z,85.97
2023-01-03T07:31:26.248Z,85.35
2023-01-03T07:33:53.450Z,86.08
2023-01-03T07:36:20.590Z,85.88
2023-01-03T07:38:47.504Z,85.14
2023-01-03T07:41:14.601Z,85.24
2023-01-03T07:43:45.306Z,85.01
2023-01-03T07:46:22.282Z,85.58
2023-01-03T07:48:53.728Z,85.34
2023-01-03T07:51:23.270Z,86.04
2023-01-03T07:53:50.401Z,85.11
2023-01-03T07:56:21.324Z,85.66
2023-01-03T07:58:48.668Z,86.86
2023-01-03T08:01:16.229Z,86.80
2023-01-03T08:03:43.298Z,85.97
2023-01-03T08:06:10.824Z,85.77
2023-01-03T08:08:37.631Z,86.20
2023-01-03T08:11:23.255Z,86.82
2023-01-03T08:13:50.441Z,86.95
2023-01-03T08:16:18.067Z,86.69
2023-01-03T08:18:45.258Z,86.72
2023-01-03T08:21:13.449Z,86.47
2023-01-03T08:23:40.533Z,86.40
2023-01-03T08:26:08.318Z,86.69
2023-01-03T08:28:35.380Z,86.98
2023-01-03T08:31:03.139Z,86.88
2023-01-03T08:33:31.519Z,86.95
2023-01-03T08:36:00.839Z,87.52
2023-01-03T08:38:29.315Z,87.46
2023-01-03T08:40:56.157Z,87.92
2023-01-03T08:43:23.079Z,87.58
2023-01-03T08:45:50.027Z,88.08
2023-01-03T08:48:17.231Z,87.90
2023-01-03T08:50:44.062Z,87.41
2023-01-03T08:53:11.173Z,87.98
2023-01-03T08:55:38.022Z,88.07
2023-01-03T08:58:04.779Z,87.25
2023-01-03T09:00:31.682Z,87.98
2023-01-03T09:03:00.471Z,87.80
2023-01-03T09:05:27.992Z,87.91
2023-01-03T09:07:55.221Z,88.12
2023-01-03T09:10:22.253Z,88.20
2023-01-03T09:12:52.006Z,88.06
2023-01-03T09:15:19.182Z,87.89
2023-01-03T09:17:47.531Z,87.93
2023-01-03T09:20:14.793Z,88.13
2023-01-03T09:22:41.683Z,87.63
2023-01-03T09:25:08.834Z,87.54
2023-01-03T09:27:38.348Z,87.26
2023-01-03T09:30:06.387Z,87.46
2023-01-03T09:32:33.567Z,87.56
2023-01-03T09:35:00.411Z,88.17
2023-01-03T09:37:27.255Z,88.39
2023-01-03T09:39:54.081Z,88.28
2023-01-03T09:42:43.115Z,88.70
2023-01-03T09:45:11.558Z,88.73
2023-01-03T09:47:38.443Z,88.17
2023-01-03T09:53:12.033Z,88.78
2023-01-03T09:56:13.521Z,88.22
2023-01-03T09:58:59.557Z,88.74
2023-01-03T10:01:52.956Z,88.83
2023-01-03T10:04:46.142Z,88.75
2023-01-03T10:07:44.988Z,89.56
2023-01-03T10:10:19.436Z,89.30
2023-01-03T10:12:46.357Z,89.43
2023-01-03T10:15:13.187Z,89.31
2023-01-03T10:17:43.963Z,89.42
2023-01-03T10:20:15.349Z,89.11
2023-01-03T10:22:42.272Z,89.67
2023-01-03T10:25:10.803Z,89.38
2023-01-03T10:27:45.185Z,89.56
2023-01-03T10:30:18.700Z,89.78
2023-01-03T10:32:58.907Z,89.60
2023-01-03T10:35:35.376Z,89.69
2023-01-03T10:38:02.400Z,89.57
2023-01-03T10:40:45.805Z,90.38
2023-01-03T10:43:19.694Z,89.41
2023-01-03T10:45:50.540Z,89.23
2023-01-03T10:48:17.395Z,89.38
2023-01-03T10:50:44.392Z,90.36
2023-01-03T10:53:11.243Z,89.15
2023-01-03T10:55:44.165Z,89.63
2023-01-03T10:58:23.856Z,90.05
2023-01-03T11:00:51.157Z,89.40
2023-01-03T11:03:24.840Z,89.90
2023-01-03T11:05:57.833Z,89.96
2023-01-03T11:08:34.982Z,89.41
2023-01-03T11:11:01.815Z,89.25
2023-01-03T11:13:34.870Z,89.11
2023-01-03T11:16:02.623Z,89.48
2023-01-03T11:18:29.780Z,89.43
2023-01-03T11:21:02.237Z,89.49
2023-01-03T11:23:32.136Z,89.61
2023-01-03T11:26:05.482Z,89.53
2023-01-03T11:28:38.540Z,89.53
2023-01-03T11:31:08.639Z,89.66
2023-01-03T11:33:46.129Z,89.31
2023-01-03T11:36:16.247Z,89.25
2023-01-03T11:39:01.886Z,89.09
2023-01-03T11:41:34.768Z,88.88
2023-01-03T11:44:04.739Z,88.53
2023-01-03T11:46:44.739Z,88.60
2023-01-03T11:49:31.249Z,88.58
2023-01-03T11:52:14.601Z,87.98
2023-01-03T11:54:51.008Z,88.48
2023-01-03T11:57:45.755Z,87.96
2023-01-03T12:00:22.317Z,87.24
2023-01-03T12:02:52.802Z,86.99
2023-01-03T12:05:43.455Z,86.75
2023-01-03T12:08:23.010Z,86.57
2023-01-03T12:10:57.298Z,86.63
2023-01-03T12:13:33.399Z,86.68
2023-01-03T12:16:07.220Z,86.77
2023-01-03T12:18:41.105Z,86.93
2023-01-03T12:21:31.735Z,86.61
2023-01-03T12:24:06.081Z,86.44
2023-01-03T12:26:33.221Z,86.22
2023-01-03T12:29:12.181Z,86.36
2023-01-03T12:31:47.736Z,86.37
2023-01-03T12:34:19.492Z,86.29
2023-01-03T12:36:48.404Z,86.20
2023-01-03T12:39:15.299Z,85.84
2023-01-03T12:41:46.825Z,85.59
2023-01-03T12:44:16.025Z,85.76
2023-01-03T12:46:44.785Z,85.83
2023-01-03T12:49:14.630Z,85.73
2023-01-03T12:51:41.477Z,85.45
2023-01-03T12:54:15.182Z,85.33
2023-01-03T12:56:48.045Z,85.46
2023-01-03T12:59:25.783Z,85.45
2023-01-03T13:01:55.196Z,85.09
2023-01-03T13:04:26.369Z,85.39
2023-01-03T13:06:54.716Z,85.26
2023-01-03T13:09:22.912Z,85.29
2023-01-03T13:11:53.442Z,84.86
2023-01-03T13:14:23.112Z,85.55
2023-01-03T13:16:50.313Z,85.19
2023-01-03T13:19:20.441Z,85.34
2023-01-03T13:21:51.550Z,85.38
2023-01-03T13:24:37.373Z,85.27
2023-01-03T13:27:16.584Z,85.23
2023-01-03T13:29:44.496Z,85.45
2023-01-03T13:32:20.461Z,85.52
2023-01-03T13:34:56.525Z,85.32
2023-01-03T13:37:23.476Z,85.26
2023-01-03T13:41:07.537Z,85.44
2023-01-03T13:43:16.877Z,85.42
2023-01-03T13:45:43.944Z,85.38
2023-01-03T13:48:19.474Z,85.33
2023-01-03T13:51:07.087Z,85.31
2023-01-03T13:53:55.820Z,85.14
2023-01-03T13:56:29.209Z,85.06
2023-01-03T13:59:14.181Z,85.17
2023-01-03T14:01:41.228Z,85.10
2023-01-03T14:04:30.732Z,84.63
2023-01-03T14:07:16.052Z,84.81
2023-01-03T14:10:06.304Z,84.99
2023-01-03T14:12:51.970Z,84.85
2023-01-03T14:15:25.902Z,84.82
2023-01-03T14:17:54.678Z,84.53
2023-01-03T14:20:22.586Z,84.67
2023-01-03T14:22:50.291Z,84.91
2023-01-03T14:25:33.045Z,85.02
2023-01-03T14:28:15.705Z,84.76
2023-01-03T14:30:42.602Z,84.71
2023-01-03T14:33:19.157Z,84.67
2023-01-03T14:35:46.183Z,84.71
2023-01-03T14:38:39.374Z,84.41
2023-01-03T14:41:06.301Z,84.81
2023-01-03T14:43:33.619Z,84.50
2023-01-03T14:46:01.719Z,84.84
2023-01-03T14:48:28.572Z,84.38
2023-01-03T14:50:55.561Z,84.48
2023-01-03T14:53:22.550Z,84.36
2023-01-03T14:55:51.004Z,84.61
2023-01-03T14:58:21.036Z,84.34
2023-01-03T15:00:48.353Z,84.19
2023-01-03T15:03:15.374Z,84.25
2023-01-03T15:05:42.405Z,84.37
2023-01-03T15:08:15.633Z,83.97
2023-01-03T15:10:48.086Z,84.21
2023-01-03T15:13:25.599Z,84.13
2023-01-03T15:15:53.519Z,84.03
2023-01-03T15:18:21.157Z,84.16
2023-01-03T15:20:48.280Z,84.06
2023-01-03T15:23:25.609Z,83.83
2023-01-03T15:25:53.366Z,83.73
2023-01-03T15:28:25.552Z,84.05
2023-01-03T15:30:56.214Z,84.10
2023-01-03T15:33:33.780Z,83.91
2023-01-03T15:36:02.728Z,83.98
2023-01-03T15:38:36.556Z,83.50
2023-01-03T15:42:06.394Z,83.94
2023-01-03T15:44:38.163Z,83.21
2023-01-03T15:47:06.469Z,83.45
2023-01-03T15:49:37.685Z,83.74
2023-01-03T15:52:04.786Z,83.58
2023-01-03T15:54:31.658Z,83.77
2023-01-03T15:57:02.373Z,83.72
2023-01-03T15:59:30.408Z,83.88
2023-01-03T16:01:57.390Z,84.02
2023-01-03T16:04:24.380Z,83.94
2023-01-03T16:06:52.873Z,83.35
2023-01-03T16:09:20.104Z,84.07
2023-01-03T16:11:47.200Z,84.04
2023-01-03T16:14:15.479Z,83.94
2023-01-03T16:16:42.907Z,83.81
2023-01-03T16:19:22.945Z,83.81
2023-01-03T16:22:16.023Z,83.84
2023-01-03T16:24:36.980Z,84.13
2023-01-03T16:27:06.462Z,83.85
2023-01-03T16:29:33.330Z,83.82
2023-01-03T16:32:00.190Z,84.07
2023-01-03T16:34:33.463Z,83.80
2023-01-03T16:37:00.824Z,83.62
2023-01-03T16:39:27.733Z,83.73
2023-01-03T16:42:13.219Z,83.63
2023-01-03T16:44:40.782Z,83.61
2023-01-03T16:47:10.240Z,83.39
2023-01-03T16:49:37.081Z,83.50
2023-01-03T16:52:04.045Z,83.55
2023-01-03T16:54:30.945Z,84.41
2023-01-03T16:56:57.726Z,84.13
2023-01-03T16:59:24.750Z,84.01
2023-01-03T17:01:51.770Z,84.50
2023-01-03T17:04:18.780Z,83.76
2023-01-03T17:06:45.736Z,83.34
2023-01-03T17:09:19.524Z,83.42
2023-01-03T17:11:46.397Z,83.88
2023-01-03T17:14:22.418Z,84.21
2023-01-03T17:16:49.741Z,84.12
2023-01-03T17:22:21.980Z,84.53
2023-01-03T17:24:49.347Z,83.57
2023-01-03T17:27:17.293Z,83.98
2023-01-03T17:29:44.128Z,84.35
2023-01-03T17:32:18.124Z,84.38
2023-01-03T17:34:45.016Z,84.25
2023-01-03T17:37:21.038Z,83.89
2023-01-03T17:39:50.038Z,83.80
2023-01-03T17:42:16.888Z,83.97
2023-01-03T17:44:44.785Z,83.63
2023-01-03T17:47:38.770Z,83.94
2023-01-03T17:50:05.796Z,83.56
2023-01-03T17:52:33.695Z,83.82
2023-01-03T17:55:00.492Z,83.93
2023-01-03T17:57:27.442Z,83.94
2023-01-03T17:59:54.387Z,83.54
2023-01-03T18:02:22.488Z,83.59
2023-01-03T18:05:15.204Z,84.20
2023-01-03T18:07:36.901Z,83.70
2023-01-03T18:10:03.795Z,83.99
2023-01-03T18:12:31.295Z,83.61
2023-01-03T18:14:58.094Z,84.07
2023-01-03T18:17:26.104Z,83.43
2023-01-03T18:19:53.026Z,83.55
2023-01-03T18:22:20.028Z,83.38
2023-01-03T18:24:46.893Z,83.44
2023-01-03T18:27:13.770Z,83.51
2023-01-03T18:29:40.604Z,83.04
2023-01-03T18:32:27.427Z,83.55
2023-01-03T18:34:54.452Z,83.38
2023-01-03T18:37:21.571Z,83.54
2023-01-03T18:39:48.422Z,84.06
2023-01-03T18:42:34.023Z,84.10
2023-01-03T18:45:00.912Z,83.50
2023-01-03T18:47:27.666Z,83.43
2023-01-03T18:49:54.582Z,83.34
2023-01-03T18:52:25.181Z,83.24
2023-01-03T18:54:52.023Z,84.09
2023-01-03T18:57:20.753Z,83.41
2023-01-03T18:59:49.512Z,83.33
2023-01-03T19:02:18.344Z,83.63
2023-01-03T19:04:51.029Z,83.65
2023-01-03T19:07:19.260Z,84.20
2023-01-03T19:09:46.104Z,83.76
2023-01-03T19:12:14.069Z,83.57
2023-01-03T19:14:46.404Z,83.86
2023-01-03T19:17:14.168Z,83.84
2023-01-03T19:19:41.048Z,83.77
2023-01-03T19:22:16.222Z,83.57
2023-01-03T19:24:44.555Z,84.00
2023-01-03T19:27:13.295Z,83.92
2023-01-03T19:29:40.281Z,84.16
2023-01-03T19:32:10.947Z,83.49
2023-01-03T19:34:37.787Z,84.27
2023-01-03T19:37:04.690Z,83.55
2023-01-03T19:39:37.093Z,84.22
2023-01-03T19:42:22.941Z,83.06
2023-01-03T19:44:50.089Z,83.60
2023-01-03T19:47:18.058Z,84.13
2023-01-03T19:49:47.389Z,83.69
2023-01-03T19:52:14.551Z,83.93
2023-01-03T19:54:41.444Z,84.02
2023-01-03T19:57:24.706Z,84.10
2023-01-03T19:59:52.777Z,83.80
2023-01-03T20:02:40.505Z,84.06
2023-01-03T20:05:19.727Z,84.08
2023-01-03T20:07:50.100Z,83.63
2023-01-03T20:10:18.518Z,84.16
2023-01-03T20:12:46.125Z,83.35
2023-01-03T20:15:19.309Z,84.17
2023-01-03T20:17:47.960Z,83.26
2023-01-03T20:20:18.997Z,83.70
2023-01-03T20:23:05.783Z,83.31
2023-01-03T20:25:33.352Z,83.72
2023-01-03T20:28:00.762Z,83.36
2023-01-03T20:30:28.682Z,83.72
2023-01-03T20:32:55.805Z,83.95
2023-01-03T20:38:10.934Z,84.17
2023-01-03T20:40:38.312Z,83.91
2023-01-03T20:43:07.226Z,84.01
2023-01-03T20:45:34.471Z,83.64
2023-01-03T20:48:01.361Z,83.90
2023-01-03T20:50:28.753Z,83.71
2023-01-03T20:52:56.236Z,83.27
2023-01-03T20:55:23.792Z,83.35
2023-01-03T20:57:51.093Z,83.69
2023-01-03T21:00:31.540Z,84.01
2023-01-03T21:03:01.611Z,83.77
2023-01-03T21:05:28.966Z,83.25
2023-01-03T21:08:18.646Z,84.14
2023-01-03T21:10:52.860Z,83.63
2023-01-03T21:13:24.102Z,84.03
2023-01-03T21:15:52.457Z,83.18
2023-01-03T21:18:19.636Z,83.68
2023-01-03T21:20:49.378Z,83.61
2023-01-03T21:23:24.339Z,84.00
2023-01-03T21:25:55.661Z,83.55
2023-01-03T21:28:23.371Z,84.10
2023-01-03T21:30:50.670Z,83.98
2023-01-03T21:33:17.876Z,83.71
2023-01-03T21:35:45.638Z,83.36
2023-01-03T21:38:12.700Z,84.31
2023-01-03T21:40:39.760Z,83.97
2023-01-03T21:43:08.112Z,84.03
2023-01-03T21:45:48.568Z,83.70
2023-01-03T21:48:18.392Z,83.61
2023-01-03T21:50:46.335Z,83.92
2023-01-03T21:53:14.563Z,83.76
2023-01-03T21:55:41.894Z,84.08
2023-01-03T21:58:09.379Z,83.92
2023-01-03T22:00:42.695Z,83.64
2023-01-03T22:03:32.207Z,83.77
2023-01-03T22:06:11.129Z,84.02
2023-01-03T22:08:38.839Z,84.38
2023-01-03T22:11:07.085Z,83.24
2023-01-03T22:13:36.211Z,83.48
2023-01-03T22:16:07.457Z,83.33
2023-01-03T22:18:35.093Z,83.65
2023-01-03T22:21:07.148Z,83.43
2023-01-03T22:23:34.316Z,84.17
2023-01-03T22:26:02.255Z,83.83
2023-01-03T22:28:35.256Z,83.94
2023-01-03T22:31:02.686Z,84.08
2023-01-03T22:33:30.274Z,84.08
2023-01-03T22:35:58.104Z,83.81
2023-01-03T22:38:25.067Z,83.89
2023-01-03T22:40:51.872Z,83.36
2023-01-03T22:43:18.718Z,83.45
2023-01-03T22:45:45.842Z,83.30
2023-01-03T22:48:12.708Z,83.22
2023-01-03T22:50:40.005Z,83.51
2023-01-03T22:53:07.059Z,83.65
2023-01-03T22:55:33.975Z,84.06
2023-01-03T22:58:00.770Z,82.32
2023-01-03T23:00:28.074Z,83.56
2023-01-03T23:02:54.877Z,82.84
2023-01-03T23:05:21.725Z,82.71
2023-01-03T23:07:48.614Z,83.19
2023-01-03T23:10:15.539Z,82.66
2023-01-03T23:13:01.259Z,82.89
2023-01-03T23:15:31.624Z,83.40
2023-01-03T23:18:01.287Z,83.74
2023-01-03T23:20:32.361Z,83.37
2023-01-03T23:23:07.766Z,82.27
2023-01-03T23:25:35.268Z,82.68
2023-01-03T23:28:02.126Z,83.70
2023-01-03T23:30:28.947Z,82.58
2023-01-03T23:32:56.023Z,82.90
2023-01-03T23:35:22.891Z,83.30
2023-01-03T23:37:49.702Z,83.32
2023-01-03T23:40:24.255Z,83.03
2023-01-03T23:45:44.201Z,83.24
2023-01-03T23:48:30.979Z,82.92
2023-01-03T23:51:24.688Z,82.52
2023-01-03T23:54:14.787Z,82.88
